sensor_id;sensor_type;location;lat;lon;timestamp;pressure;altitude;pressure_sealevel;temperature;humidity
48644;BME280;34928;37.302;-121.984;2023-02-13T00:00:52;100638.0;;;26.51;22.95
48644;BME280;34928;37.302;-121.984;2023-02-13T00:10:57;100640.0;;;26.52;22.82
48644;BME280;34928;37.302;-121.984;2023-02-13T00:21:05;100649.0;;;26.33;22.85
48644;BME280;34928;37.302;-121.984;2023-02-13T00:31:14;100647.0;;;26.34;22.74
48644;BME280;34928;37.302;-121.984;2023-02-13T00:41:17;100651.0;;;26.53;22.63
48644;BME280;34928;37.302;-121.984;2023-02-13T00:51:22;100644.0;;;26.46;22.99
48644;BME280;34928;37.302;-121.984;2023-02-13T01:01:27;100640.0;;;26.89;23.30
48644;BME280;34928;37.302;-121.984;2023-02-13T01:11:33;100635.0;;;26.96;23.95
48644;BME280;34928;37.302;-121.984;2023-02-13T01:21:37;100633.0;;;26.94;24.25
48644;BME280;34928;37.302;-121.984;2023-02-13T01:31:42;100637.0;;;26.91;24.53
48644;BME280;34928;37.302;-121.984;2023-02-13T01:41:48;100633.0;;;26.69;25.02
48644;BME280;34928;37.302;-121.984;2023-02-13T01:51:54;100650.0;;;26.77;25.38
48644;BME280;34928;37.302;-121.984;2023-02-13T02:01:58;100669.0;;;26.81;25.33
48644;BME280;34928;37.302;-121.984;2023-02-13T02:12:08;100676.0;;;27.03;25.13
48644;BME280;34928;37.302;-121.984;2023-02-13T02:22:45;100677.0;;;26.54;22.63
48644;BME280;34928;37.302;-121.984;2023-02-13T02:33:00;100693.0;;;25.37;22.17
48644;BME280;34928;37.302;-121.984;2023-02-13T02:43:18;100692.0;;;24.81;22.40
48644;BME280;34928;37.302;-121.984;2023-02-13T02:53:32;100697.0;;;26.21;24.11
48644;BME280;34928;37.302;-121.984;2023-02-13T03:03:38;100689.0;;;26.73;24.21
48644;BME280;34928;37.302;-121.984;2023-02-13T03:13:44;100690.0;;;26.62;24.21
48644;BME280;34928;37.302;-121.984;2023-02-13T03:23:57;100686.0;;;26.66;24.07
48644;BME280;34928;37.302;-121.984;2023-02-13T03:34:04;100672.0;;;26.88;23.93
48644;BME280;34928;37.302;-121.984;2023-02-13T03:44:15;100681.0;;;26.66;23.78
48644;BME280;34928;37.302;-121.984;2023-02-13T04:04:50;100663.0;;;26.59;23.65
48644;BME280;34928;37.302;-121.984;2023-02-13T04:15:00;100668.0;;;26.83;23.49
48644;BME280;34928;37.302;-121.984;2023-02-13T04:25:07;100661.0;;;26.55;23.65
48644;BME280;34928;37.302;-121.984;2023-02-13T04:35:13;100651.0;;;26.51;23.99
48644;BME280;34928;37.302;-121.984;2023-02-13T04:45:17;100653.0;;;26.67;24.03
48644;BME280;34928;37.302;-121.984;2023-02-13T04:55:22;100653.0;;;26.56;23.79
48644;BME280;34928;37.302;-121.984;2023-02-13T05:05:27;100650.0;;;26.37;23.84
48644;BME280;34928;37.302;-121.984;2023-02-13T05:15:32;100657.0;;;26.67;23.69
48644;BME280;34928;37.302;-121.984;2023-02-13T05:25:39;100658.0;;;26.64;23.52
48644;BME280;34928;37.302;-121.984;2023-02-13T05:35:42;100655.0;;;26.31;23.36
48644;BME280;34928;37.302;-121.984;2023-02-13T05:45:47;100652.0;;;26.48;23.22
48644;BME280;34928;37.302;-121.984;2023-02-13T05:55:52;100647.0;;;26.29;23.14
48644;BME280;34928;37.302;-121.984;2023-02-13T06:05:58;100642.0;;;26.02;22.91
48644;BME280;34928;37.302;-121.984;2023-02-13T06:16:02;100626.0;;;26.04;22.90
48644;BME280;34928;37.302;-121.984;2023-02-13T06:26:09;100623.0;;;25.48;22.33
48644;BME280;34928;37.302;-121.984;2023-02-13T06:36:12;100629.0;;;25.39;21.99
48644;BME280;34928;37.302;-121.984;2023-02-13T06:46:17;100609.0;;;26.12;21.38
48644;BME280;34928;37.302;-121.984;2023-02-13T06:56:22;100599.0;;;26.46;21.27
48644;BME280;34928;37.302;-121.984;2023-02-13T07:06:28;100594.0;;;26.71;20.76
48644;BME280;34928;37.302;-121.984;2023-02-13T07:16:32;100591.0;;;26.47;20.40
48644;BME280;34928;37.302;-121.984;2023-02-13T07:26:37;100596.0;;;26.88;20.30
48644;BME280;34928;37.302;-121.984;2023-02-13T07:36:42;100599.0;;;27.05;20.50
48644;BME280;34928;37.302;-121.984;2023-02-13T07:46:47;100584.0;;;26.73;20.66
48644;BME280;34928;37.302;-121.984;2023-02-13T07:56:52;100584.0;;;27.15;20.77
48644;BME280;34928;37.302;-121.984;2023-02-13T08:06:57;100587.0;;;27.15;20.91
48644;BME280;34928;37.302;-121.984;2023-02-13T08:17:02;100572.0;;;27.02;20.98
48644;BME280;34928;37.302;-121.984;2023-02-13T08:27:11;100585.0;;;26.90;20.87
48644;BME280;34928;37.302;-121.984;2023-02-13T08:37:18;100578.0;;;26.71;20.85
48644;BME280;34928;37.302;-121.984;2023-02-13T08:47:22;100569.0;;;26.56;20.75
48644;BME280;34928;37.302;-121.984;2023-02-13T08:57:27;100549.0;;;26.22;20.52
48644;BME280;34928;37.302;-121.984;2023-02-13T09:07:32;100534.0;;;26.63;20.94
48644;BME280;34928;37.302;-121.984;2023-02-13T09:17:37;100520.0;;;26.55;20.83
48644;BME280;34928;37.302;-121.984;2023-02-13T09:27:43;100509.0;;;26.37;20.83
48644;BME280;34928;37.302;-121.984;2023-02-13T09:37:48;100495.0;;;26.27;20.78
48644;BME280;34928;37.302;-121.984;2023-02-13T09:47:52;100494.0;;;26.27;20.89
48644;BME280;34928;37.302;-121.984;2023-02-13T09:58:01;100515.0;;;26.00;20.85
48644;BME280;34928;37.302;-121.984;2023-02-13T10:08:17;100519.0;;;25.93;20.94
48644;BME280;34928;37.302;-121.984;2023-02-13T10:18:26;100542.0;;;25.77;21.05
48644;BME280;34928;37.302;-121.984;2023-02-13T10:28:36;100545.0;;;25.73;20.86
48644;BME280;34928;37.302;-121.984;2023-02-13T10:38:45;100539.0;;;25.60;20.94
48644;BME280;34928;37.302;-121.984;2023-02-13T10:49:07;100540.0;;;26.01;20.94
48644;BME280;34928;37.302;-121.984;2023-02-13T10:59:23;100533.0;;;25.33;21.10
48644;BME280;34928;37.302;-121.984;2023-02-13T11:09:39;100516.0;;;25.19;21.19
48644;BME280;34928;37.302;-121.984;2023-02-13T11:19:48;100520.0;;;25.09;21.09
48644;BME280;34928;37.302;-121.984;2023-02-13T11:29:54;100508.0;;;24.99;20.90
48644;BME280;34928;37.302;-121.984;2023-02-13T11:39:58;100506.0;;;25.45;21.10
48644;BME280;34928;37.302;-121.984;2023-02-13T11:50:03;100503.0;;;25.08;21.22
48644;BME280;34928;37.302;-121.984;2023-02-13T12:10:29;100477.0;;;25.13;21.28
48644;BME280;34928;37.302;-121.984;2023-02-13T12:20:41;100475.0;;;24.53;21.43
48644;BME280;34928;37.302;-121.984;2023-02-13T12:41:15;100494.0;;;24.75;21.77
48644;BME280;34928;37.302;-121.984;2023-02-13T12:51:32;100500.0;;;24.77;21.77
48644;BME280;34928;37.302;-121.984;2023-02-13T13:02:01;100506.0;;;24.56;21.93
48644;BME280;34928;37.302;-121.984;2023-02-13T13:12:22;100511.0;;;24.72;21.47
48644;BME280;34928;37.302;-121.984;2023-02-13T13:22:38;100524.0;;;24.13;21.72
48644;BME280;34928;37.302;-121.984;2023-02-13T13:32:51;100525.0;;;23.51;21.00
48644;BME280;34928;37.302;-121.984;2023-02-13T13:43:01;100528.0;;;24.45;22.06
48644;BME280;34928;37.302;-121.984;2023-02-13T13:53:10;100541.0;;;24.97;21.99
48644;BME280;34928;37.302;-121.984;2023-02-13T14:03:37;100544.0;;;25.08;21.89
48644;BME280;34928;37.302;-121.984;2023-02-13T14:13:42;100536.0;;;25.34;21.87
48644;BME280;34928;37.302;-121.984;2023-02-13T14:23:48;100517.0;;;25.43;21.65
48644;BME280;34928;37.302;-121.984;2023-02-13T14:33:55;100513.0;;;25.77;21.67
48644;BME280;34928;37.302;-121.984;2023-02-13T14:44:03;100518.0;;;25.86;21.71
48644;BME280;34928;37.302;-121.984;2023-02-13T14:54:16;100526.0;;;26.20;21.52
48644;BME280;34928;37.302;-121.984;2023-02-13T15:04:29;100547.0;;;26.01;21.57
48644;BME280;34928;37.302;-121.984;2023-02-13T15:14:37;100550.0;;;26.14;21.48
48644;BME280;34928;37.302;-121.984;2023-02-13T15:24:46;100559.0;;;26.14;21.00
48644;BME280;34928;37.302;-121.984;2023-02-13T15:34:52;100593.0;;;26.75;21.12
48644;BME280;34928;37.302;-121.984;2023-02-13T15:44:58;100603.0;;;26.62;20.66
48644;BME280;34928;37.302;-121.984;2023-02-13T15:55:03;100596.0;;;26.92;20.92
48644;BME280;34928;37.302;-121.984;2023-02-13T16:05:09;100622.0;;;26.91;20.75
48644;BME280;34928;37.302;-121.984;2023-02-13T16:15:15;100631.0;;;26.66;20.50
48644;BME280;34928;37.302;-121.984;2023-02-13T16:25:25;100623.0;;;26.88;20.54
48644;BME280;34928;37.302;-121.984;2023-02-13T16:35:35;100608.0;;;26.50;19.49
48644;BME280;34928;37.302;-121.984;2023-02-13T16:45:43;100624.0;;;26.10;20.44
48644;BME280;34928;37.302;-121.984;2023-02-13T16:55:55;100615.0;;;26.18;20.57
48644;BME280;34928;37.302;-121.984;2023-02-13T17:06:04;100608.0;;;26.44;20.52
48644;BME280;34928;37.302;-121.984;2023-02-13T17:16:08;100607.0;;;26.19;20.49
48644;BME280;34928;37.302;-121.984;2023-02-13T17:26:12;100609.0;;;26.30;20.41
48644;BME280;34928;37.302;-121.984;2023-02-13T17:36:17;100609.0;;;26.35;20.49
48644;BME280;34928;37.302;-121.984;2023-02-13T17:46:22;100609.0;;;26.17;20.60
48644;BME280;34928;37.302;-121.984;2023-02-13T17:56:27;100614.0;;;26.13;20.66
48644;BME280;34928;37.302;-121.984;2023-02-13T18:06:32;100627.0;;;25.83;20.87
48644;BME280;34928;37.302;-121.984;2023-02-13T18:16:37;100635.0;;;26.18;20.81
48644;BME280;34928;37.302;-121.984;2023-02-13T18:26:42;100638.0;;;26.37;20.84
48644;BME280;34928;37.302;-121.984;2023-02-13T18:36:48;100642.0;;;26.20;20.87
48644;BME280;34928;37.302;-121.984;2023-02-13T18:46:52;100633.0;;;26.28;21.07
48644;BME280;34928;37.302;-121.984;2023-02-13T18:56:57;100615.0;;;26.05;21.12
48644;BME280;34928;37.302;-121.984;2023-02-13T19:07:02;100626.0;;;26.32;21.28
48644;BME280;34928;37.302;-121.984;2023-02-13T19:17:07;100635.0;;;26.30;21.30
48644;BME280;34928;37.302;-121.984;2023-02-13T19:27:13;100632.0;;;26.31;21.31
48644;BME280;34928;37.302;-121.984;2023-02-13T19:37:17;100645.0;;;26.42;21.27
48644;BME280;34928;37.302;-121.984;2023-02-13T19:47:23;100620.0;;;26.43;21.30
48644;BME280;34928;37.302;-121.984;2023-02-13T19:57:27;100622.0;;;26.21;21.34
48644;BME280;34928;37.302;-121.984;2023-02-13T20:07:33;100608.0;;;26.69;21.44
48644;BME280;34928;37.302;-121.984;2023-02-13T20:17:37;100581.0;;;26.51;21.76
48644;BME280;34928;37.302;-121.984;2023-02-13T20:27:42;100571.0;;;26.99;22.97
48644;BME280;34928;37.302;-121.984;2023-02-13T20:37:47;100571.0;;;26.97;24.34
48644;BME280;34928;37.302;-121.984;2023-02-13T20:47:53;100573.0;;;26.66;24.33
48644;BME280;34928;37.302;-121.984;2023-02-13T20:57:57;100570.0;;;26.77;24.26
48644;BME280;34928;37.302;-121.984;2023-02-13T21:08:02;100565.0;;;26.74;24.06
48644;BME280;34928;37.302;-121.984;2023-02-13T21:18:07;100558.0;;;26.82;23.89
48644;BME280;34928;37.302;-121.984;2023-02-13T21:28:12;100563.0;;;26.84;23.66
48644;BME280;34928;37.302;-121.984;2023-02-13T21:38:17;100551.0;;;27.13;23.61
48644;BME280;34928;37.302;-121.984;2023-02-13T21:48:22;100535.0;;;26.81;23.62
48644;BME280;34928;37.302;-121.984;2023-02-13T21:58:27;100526.0;;;26.89;23.53
48644;BME280;34928;37.302;-121.984;2023-02-13T22:08:32;100507.0;;;26.88;23.63
48644;BME280;34928;37.302;-121.984;2023-02-13T22:18:43;100510.0;;;27.28;23.56
48644;BME280;34928;37.302;-121.984;2023-02-13T22:28:48;100527.0;;;27.06;23.55
48644;BME280;34928;37.302;-121.984;2023-02-13T22:38:53;100548.0;;;27.19;23.54
48644;BME280;34928;37.302;-121.984;2023-02-13T22:48:58;100542.0;;;27.19;23.62
48644;BME280;34928;37.302;-121.984;2023-02-13T22:59:03;100536.0;;;26.70;24.82
48644;BME280;34928;37.302;-121.984;2023-02-13T23:09:07;100528.0;;;27.06;24.06
48644;BME280;34928;37.302;-121.984;2023-02-13T23:19:12;100526.0;;;27.20;23.95
48644;BME280;34928;37.302;-121.984;2023-02-13T23:29:17;100545.0;;;27.40;23.96
48644;BME280;34928;37.302;-121.984;2023-02-13T23:39:22;100557.0;;;27.51;23.86
48644;BME280;34928;37.302;-121.984;2023-02-13T23:49:28;100580.0;;;27.45;23.99
48644;BME280;34928;37.302;-121.984;2023-02-13T23:59:32;100582.0;;;27.55;23.90
